sensor_id;sensor_type;location;lat;lon;timestamp;pressure;altitude;pressure_sealevel;temperature;humidity
58973;BME280;44750;52.040;7.472;2023-02-15T00:00:19;101645.84;;;6.06;100.00
58973;BME280;44750;52.040;7.472;2023-02-15T00:05:20;101629.53;;;5.95;100.00
58973;BME280;44750;52.040;7.472;2023-02-15T00:10:20;101625.72;;;5.84;100.00
58973;BME280;44750;52.040;7.472;2023-02-15T00:15:20;101602.28;;;5.59;100.00
58973;BME280;44750;52.040;7.472;2023-02-15T00:20:20;101602.19;;;5.46;100.00
58973;BME280;44750;52.040;7.472;2023-02-15T00:25:20;101579.78;;;5.33;100.00
58973;BME280;44750;52.040;7.472;2023-02-15T00:30:21;101591.19;;;5.22;100.00
58973;BME280;44750;52.040;7.472;2023-02-15T00:35:21;101566.97;;;5.09;100.00
58973;BME280;44750;52.040;7.472;2023-02-15T00:40:21;101571.56;;;5.07;100.00
58973;BME280;44750;52.040;7.472;2023-02-15T00:45:22;101596.66;;;5.21;100.00
58973;BME280;44750;52.040;7.472;2023-02-15T00:50:22;101601.56;;;5.28;100.00
58973;BME280;44750;52.040;7.472;2023-02-15T00:55:22;101589.56;;;5.19;100.00
58973;BME280;44750;52.040;7.472;2023-02-15T01:00:22;101600.97;;;5.23;100.00
58973;BME280;44750;52.040;7.472;2023-02-15T01:05:23;101601.28;;;5.18;100.00
58973;BME280;44750;52.040;7.472;2023-02-15T01:10:23;101598.97;;;5.12;100.00
58973;BME280;44750;52.040;7.472;2023-02-15T01:15:24;101600.03;;;5.10;100.00
58973;BME280;44750;52.040;7.472;2023-02-15T01:20:27;101601.44;;;5.15;100.00
58973;BME280;44750;52.040;7.472;2023-02-15T01:25:27;101598.13;;;5.12;99.99
58973;BME280;44750;52.040;7.472;2023-02-15T01:30:27;101567.06;;;4.93;99.06
58973;BME280;44750;52.040;7.472;2023-02-15T01:35:28;101580.47;;;4.93;99.00
58973;BME280;44750;52.040;7.472;2023-02-15T01:40:29;101570.38;;;4.82;97.30
58973;BME280;44750;52.040;7.472;2023-02-15T01:45:31;101565.41;;;4.76;95.70
58973;BME280;44750;52.040;7.472;2023-02-15T01:55:36;101568.63;;;4.52;92.91
58973;BME280;44750;52.040;7.472;2023-02-15T02:00:38;101581.09;;;4.54;90.56
58973;BME280;44750;52.040;7.472;2023-02-15T02:05:39;101576.63;;;4.38;90.17
58973;BME280;44750;52.040;7.472;2023-02-15T02:10:40;101579.97;;;4.27;89.41
58973;BME280;44750;52.040;7.472;2023-02-15T02:21:05;101587.69;;;4.17;87.22
58973;BME280;44750;52.040;7.472;2023-02-15T02:26:31;101561.03;;;4.00;86.55
58973;BME280;44750;52.040;7.472;2023-02-15T02:32:14;101552.38;;;3.95;85.99
58973;BME280;44750;52.040;7.472;2023-02-15T02:37:30;101555.22;;;3.92;83.52
58973;BME280;44750;52.040;7.472;2023-02-15T02:42:37;101577.09;;;4.00;81.73
58973;BME280;44750;52.040;7.472;2023-02-15T02:52:48;101568.97;;;4.01;78.71
58973;BME280;44750;52.040;7.472;2023-02-15T02:57:54;101570.44;;;3.91;77.83
58973;BME280;44750;52.040;7.472;2023-02-15T03:03:00;101569.59;;;3.91;76.23
58973;BME280;44750;52.040;7.472;2023-02-15T03:08:03;101558.28;;;3.85;74.77
58973;BME280;44750;52.040;7.472;2023-02-15T03:13:04;101552.63;;;3.90;73.00
58973;BME280;44750;52.040;7.472;2023-02-15T03:18:05;101572.09;;;3.94;72.69
58973;BME280;44750;52.040;7.472;2023-02-15T03:23:16;101578.81;;;4.01;71.00
58973;BME280;44750;52.040;7.472;2023-02-15T03:28:25;101568.63;;;3.92;70.87
58973;BME280;44750;52.040;7.472;2023-02-15T03:33:27;101580.13;;;3.94;70.87
58973;BME280;44750;52.040;7.472;2023-02-15T03:38:51;101580.72;;;3.99;70.13
58973;BME280;44750;52.040;7.472;2023-02-15T03:43:56;101582.81;;;3.94;70.38
58973;BME280;44750;52.040;7.472;2023-02-15T03:49:12;101566.06;;;3.74;71.23
58973;BME280;44750;52.040;7.472;2023-02-15T03:54:29;101555.25;;;3.60;72.08
58973;BME280;44750;52.040;7.472;2023-02-15T03:59:30;101556.56;;;3.53;71.42
58973;BME280;44750;52.040;7.472;2023-02-15T04:04:32;101561.59;;;3.59;71.02
58973;BME280;44750;52.040;7.472;2023-02-15T04:09:32;101564.69;;;3.67;69.99
58973;BME280;44750;52.040;7.472;2023-02-15T04:14:33;101561.22;;;3.65;69.50
58973;BME280;44750;52.040;7.472;2023-02-15T04:19:33;101548.44;;;3.54;69.14
58973;BME280;44750;52.040;7.472;2023-02-15T04:24:33;101546.66;;;3.55;69.39
58973;BME280;44750;52.040;7.472;2023-02-15T04:29:34;101549.47;;;3.51;69.07
58973;BME280;44750;52.040;7.472;2023-02-15T04:34:34;101565.41;;;3.55;68.46
58973;BME280;44750;52.040;7.472;2023-02-15T04:39:34;101563.66;;;3.54;68.33
58973;BME280;44750;52.040;7.472;2023-02-15T04:44:34;101566.56;;;3.49;68.38
58973;BME280;44750;52.040;7.472;2023-02-15T04:49:34;101550.19;;;3.39;67.99
58973;BME280;44750;52.040;7.472;2023-02-15T04:54:35;101557.41;;;3.53;66.90
58973;BME280;44750;52.040;7.472;2023-02-15T04:59:35;101557.88;;;3.45;66.90
58973;BME280;44750;52.040;7.472;2023-02-15T05:04:35;101556.91;;;3.46;67.05
58973;BME280;44750;52.040;7.472;2023-02-15T05:09:35;101553.28;;;3.47;67.21
58973;BME280;44750;52.040;7.472;2023-02-15T05:14:36;101552.06;;;3.37;67.93
58973;BME280;44750;52.040;7.472;2023-02-15T05:19:36;101537.31;;;3.30;68.63
58973;BME280;44750;52.040;7.472;2023-02-15T05:24:36;101532.47;;;3.21;69.60
58973;BME280;44750;52.040;7.472;2023-02-15T05:29:36;101529.69;;;3.06;70.34
58973;BME280;44750;52.040;7.472;2023-02-15T05:34:36;101521.16;;;2.99;70.32
58973;BME280;44750;52.040;7.472;2023-02-15T05:39:37;101510.84;;;2.92;69.46
58973;BME280;44750;52.040;7.472;2023-02-15T05:44:37;101518.22;;;2.88;69.44
58973;BME280;44750;52.040;7.472;2023-02-15T05:49:37;101525.13;;;2.92;67.79
58973;BME280;44750;52.040;7.472;2023-02-15T05:54:37;101506.38;;;2.92;67.41
58973;BME280;44750;52.040;7.472;2023-02-15T05:59:37;101515.97;;;2.96;66.69
58973;BME280;44750;52.040;7.472;2023-02-15T06:04:38;101502.50;;;2.98;66.07
58973;BME280;44750;52.040;7.472;2023-02-15T06:09:38;101497.84;;;2.86;66.85
58973;BME280;44750;52.040;7.472;2023-02-15T06:14:38;101494.22;;;2.87;66.02
58973;BME280;44750;52.040;7.472;2023-02-15T06:19:39;101495.06;;;2.87;65.50
58973;BME280;44750;52.040;7.472;2023-02-15T06:24:39;101516.72;;;2.98;64.84
58973;BME280;44750;52.040;7.472;2023-02-15T06:29:40;101510.84;;;2.92;64.74
58973;BME280;44750;52.040;7.472;2023-02-15T06:34:40;101501.91;;;2.93;63.30
58973;BME280;44750;52.040;7.472;2023-02-15T06:39:40;101520.44;;;2.96;63.42
58973;BME280;44750;52.040;7.472;2023-02-15T06:44:40;101531.00;;;2.99;63.11
58973;BME280;44750;52.040;7.472;2023-02-15T06:49:41;101507.94;;;2.96;62.81
58973;BME280;44750;52.040;7.472;2023-02-15T06:54:41;101518.47;;;2.99;62.42
58973;BME280;44750;52.040;7.472;2023-02-15T06:59:41;101502.25;;;2.87;63.13
58973;BME280;44750;52.040;7.472;2023-02-15T07:04:41;101502.81;;;2.76;63.61
58973;BME280;44750;52.040;7.472;2023-02-15T07:09:41;101506.97;;;2.81;63.41
58973;BME280;44750;52.040;7.472;2023-02-15T07:14:42;101503.50;;;2.79;62.67
58973;BME280;44750;52.040;7.472;2023-02-15T07:19:42;101503.88;;;2.89;62.55
58973;BME280;44750;52.040;7.472;2023-02-15T07:24:42;101513.28;;;2.96;62.31
58973;BME280;44750;52.040;7.472;2023-02-15T07:29:42;101486.78;;;2.92;61.95
58973;BME280;44750;52.040;7.472;2023-02-15T07:34:42;101488.91;;;3.03;61.71
58973;BME280;44750;52.040;7.472;2023-02-15T07:39:43;101482.16;;;3.11;62.16
58973;BME280;44750;52.040;7.472;2023-02-15T07:44:43;101492.16;;;3.24;61.77
58973;BME280;44750;52.040;7.472;2023-02-15T07:49:44;101504.91;;;3.50;60.70
58973;BME280;44750;52.040;7.472;2023-02-15T07:54:44;101491.53;;;3.50;61.16
58973;BME280;44750;52.040;7.472;2023-02-15T07:59:44;101497.22;;;3.76;61.24
58973;BME280;44750;52.040;7.472;2023-02-15T08:04:45;101504.16;;;3.95;61.96
58973;BME280;44750;52.040;7.472;2023-02-15T08:09:50;101493.41;;;4.11;63.14
58973;BME280;44750;52.040;7.472;2023-02-15T08:14:51;101489.13;;;4.23;64.39
58973;BME280;44750;52.040;7.472;2023-02-15T08:19:51;101464.63;;;4.29;66.40
58973;BME280;44750;52.040;7.472;2023-02-15T08:24:51;101460.53;;;4.52;68.04
58973;BME280;44750;52.040;7.472;2023-02-15T08:29:51;101425.56;;;4.54;71.52
58973;BME280;44750;52.040;7.472;2023-02-15T08:34:51;101443.34;;;4.83;74.01
58973;BME280;44750;52.040;7.472;2023-02-15T08:39:52;101414.78;;;4.82;78.21
58973;BME280;44750;52.040;7.472;2023-02-15T08:44:52;101394.94;;;4.99;80.85
58973;BME280;44750;52.040;7.472;2023-02-15T08:49:52;101381.38;;;5.15;84.74
58973;BME280;44750;52.040;7.472;2023-02-15T08:54:52;101332.31;;;5.13;89.21
58973;BME280;44750;52.040;7.472;2023-02-15T08:59:53;101319.13;;;5.23;92.64
58973;BME280;44750;52.040;7.472;2023-02-15T09:04:53;101274.91;;;5.16;96.39
58973;BME280;44750;52.040;7.472;2023-02-15T09:09:53;101274.59;;;5.46;97.31
58973;BME280;44750;52.040;7.472;2023-02-15T09:14:53;101270.53;;;5.66;99.26
58973;BME280;44750;52.040;7.472;2023-02-15T09:19:53;101273.09;;;5.94;100.00
58973;BME280;44750;52.040;7.472;2023-02-15T09:24:54;101220.66;;;5.88;100.00
58973;BME280;44750;52.040;7.472;2023-02-15T09:29:54;101220.53;;;5.90;100.00
58973;BME280;44750;52.040;7.472;2023-02-15T09:34:54;101220.81;;;6.24;100.00
58973;BME280;44750;52.040;7.472;2023-02-15T09:39:54;101153.88;;;6.08;100.00
58973;BME280;44750;52.040;7.472;2023-02-15T09:45:13;101189.28;;;6.50;100.00
58973;BME280;44750;52.040;7.472;2023-02-15T09:56:14;101144.31;;;6.88;100.00
58973;BME280;44750;52.040;7.472;2023-02-15T10:01:43;101159.28;;;7.14;100.00
58973;BME280;44750;52.040;7.472;2023-02-15T10:17:38;101140.09;;;7.42;100.00
58973;BME280;44750;52.040;7.472;2023-02-15T10:27:54;101118.41;;;7.66;100.00
58973;BME280;44750;52.040;7.472;2023-02-15T10:33:00;101120.28;;;7.65;100.00
58973;BME280;44750;52.040;7.472;2023-02-15T10:59:16;101085.75;;;8.89;100.00
58973;BME280;44750;52.040;7.472;2023-02-15T11:10:29;101098.22;;;9.11;100.00
58973;BME280;44750;52.040;7.472;2023-02-15T11:15:34;101094.56;;;9.22;100.00
58973;BME280;44750;52.040;7.472;2023-02-15T11:20:36;101112.19;;;9.47;100.00
58973;BME280;44750;52.040;7.472;2023-02-15T11:25:39;101101.38;;;9.47;100.00
58973;BME280;44750;52.040;7.472;2023-02-15T11:30:44;101095.44;;;9.63;100.00
58973;BME280;44750;52.040;7.472;2023-02-15T11:35:53;101089.22;;;9.73;100.00
58973;BME280;44750;52.040;7.472;2023-02-15T11:41:00;101078.53;;;9.71;100.00
58973;BME280;44750;52.040;7.472;2023-02-15T11:46:01;101086.13;;;9.87;100.00
58973;BME280;44750;52.040;7.472;2023-02-15T11:51:02;101092.13;;;10.10;100.00
58973;BME280;44750;52.040;7.472;2023-02-15T11:56:03;101062.94;;;10.04;100.00
58973;BME280;44750;52.040;7.472;2023-02-15T12:01:11;101086.22;;;10.36;100.00
58973;BME280;44750;52.040;7.472;2023-02-15T12:06:25;101086.22;;;10.56;100.00
58973;BME280;44750;52.040;7.472;2023-02-15T12:11:32;101065.38;;;10.66;100.00
58973;BME280;44750;52.040;7.472;2023-02-15T12:16:45;101049.13;;;10.66;100.00
58973;BME280;44750;52.040;7.472;2023-02-15T12:21:49;101052.22;;;10.81;100.00
58973;BME280;44750;52.040;7.472;2023-02-15T12:26:59;101057.03;;;10.97;100.00
58973;BME280;44750;52.040;7.472;2023-02-15T12:32:00;101053.06;;;11.01;100.00
58973;BME280;44750;52.040;7.472;2023-02-15T12:37:08;101065.97;;;11.17;100.00
58973;BME280;44750;52.040;7.472;2023-02-15T12:42:15;101076.47;;;11.30;100.00
58973;BME280;44750;52.040;7.472;2023-02-15T13:02:52;101056.59;;;11.67;100.00
58973;BME280;44750;52.040;7.472;2023-02-15T13:07:57;101042.72;;;11.70;100.00
58973;BME280;44750;52.040;7.472;2023-02-15T13:12:58;101053.75;;;11.86;100.00
58973;BME280;44750;52.040;7.472;2023-02-15T13:18:00;101035.16;;;11.92;100.00
58973;BME280;44750;52.040;7.472;2023-02-15T13:23:05;101027.97;;;12.00;100.00
58973;BME280;44750;52.040;7.472;2023-02-15T13:28:11;101036.41;;;12.15;100.00
58973;BME280;44750;52.040;7.472;2023-02-15T13:33:21;101007.88;;;12.11;100.00
58973;BME280;44750;52.040;7.472;2023-02-15T13:39:22;100990.66;;;12.20;100.00
58973;BME280;44750;52.040;7.472;2023-02-15T13:49:54;100978.56;;;12.33;100.00
58973;BME280;44750;52.040;7.472;2023-02-15T14:00:44;100968.16;;;12.46;100.00
58973;BME280;44750;52.040;7.472;2023-02-15T14:06:49;100954.63;;;12.54;100.00
58973;BME280;44750;52.040;7.472;2023-02-15T14:16:57;100910.84;;;12.58;100.00
58973;BME280;44750;52.040;7.472;2023-02-15T14:22:11;100868.31;;;12.40;100.00
58973;BME280;44750;52.040;7.472;2023-02-15T14:27:26;100881.34;;;12.63;100.00
58973;BME280;44750;52.040;7.472;2023-02-15T14:32:34;100858.59;;;12.64;100.00
58973;BME280;44750;52.040;7.472;2023-02-15T14:38:01;100862.31;;;12.63;100.00
58973;BME280;44750;52.040;7.472;2023-02-15T14:48:49;100817.00;;;12.63;100.00
58973;BME280;44750;52.040;7.472;2023-02-15T14:53:50;100780.84;;;12.54;100.00
58973;BME280;44750;52.040;7.472;2023-02-15T15:03:53;100766.38;;;12.46;100.00
58973;BME280;44750;52.040;7.472;2023-02-15T15:09:05;100774.03;;;12.50;100.00
58973;BME280;44750;52.040;7.472;2023-02-15T15:51:20;100720.41;;;12.01;100.00
58973;BME280;44750;52.040;7.472;2023-02-15T15:56:27;100705.91;;;11.93;100.00
58973;BME280;44750;52.040;7.472;2023-02-15T16:01:30;100701.44;;;11.83;100.00
58973;BME280;44750;52.040;7.472;2023-02-15T16:06:37;100708.91;;;11.81;100.00
58973;BME280;44750;52.040;7.472;2023-02-15T16:11:38;100699.03;;;11.72;100.00
58973;BME280;44750;52.040;7.472;2023-02-15T16:16:38;100710.47;;;11.58;100.00
58973;BME280;44750;52.040;7.472;2023-02-15T16:21:39;100710.47;;;11.58;100.00
58973;BME280;44750;52.040;7.472;2023-02-15T16:27:14;100711.78;;;11.53;100.00
58973;BME280;44750;52.040;7.472;2023-02-15T16:32:18;100702.63;;;11.46;100.00
58973;BME280;44750;52.040;7.472;2023-02-15T16:37:22;100682.50;;;11.31;100.00
58973;BME280;44750;52.040;7.472;2023-02-15T16:42:23;100773.88;;;11.20;100.00
58973;BME280;44750;52.040;7.472;2023-02-15T16:47:26;100768.53;;;11.11;100.00
58973;BME280;44750;52.040;7.472;2023-02-15T16:52:27;100806.56;;;11.01;100.00
58973;BME280;44750;52.040;7.472;2023-02-15T16:57:46;100806.03;;;10.87;100.00
58973;BME280;44750;52.040;7.472;2023-02-15T17:13:17;100777.00;;;10.62;100.00
58973;BME280;44750;52.040;7.472;2023-02-15T17:18:20;100783.31;;;10.52;100.00
58973;BME280;44750;52.040;7.472;2023-02-15T17:23:33;100781.84;;;10.40;100.00
58973;BME280;44750;52.040;7.472;2023-02-15T17:28:35;100768.09;;;10.24;100.00
58973;BME280;44750;52.040;7.472;2023-02-15T17:33:37;100782.13;;;10.27;100.00
58973;BME280;44750;52.040;7.472;2023-02-15T17:38:39;100762.66;;;10.24;100.00
58973;BME280;44750;52.040;7.472;2023-02-15T17:43:39;100755.03;;;10.09;100.00
58973;BME280;44750;52.040;7.472;2023-02-15T17:48:41;100759.56;;;10.09;100.00
58973;BME280;44750;52.040;7.472;2023-02-15T17:53:42;100739.09;;;10.06;100.00
58973;BME280;44750;52.040;7.472;2023-02-15T17:58:42;100732.84;;;10.06;100.00
58973;BME280;44750;52.040;7.472;2023-02-15T18:03:47;100838.16;;;10.07;100.00
58973;BME280;44750;52.040;7.472;2023-02-15T18:08:48;100819.97;;;9.99;100.00
58973;BME280;44750;52.040;7.472;2023-02-15T18:13:48;100808.59;;;9.96;100.00
58973;BME280;44750;52.040;7.472;2023-02-15T18:18:48;100794.81;;;9.89;100.00
58973;BME280;44750;52.040;7.472;2023-02-15T18:23:49;100819.94;;;10.09;100.00
58973;BME280;44750;52.040;7.472;2023-02-15T18:28:50;100810.28;;;10.07;100.00
58973;BME280;44750;52.040;7.472;2023-02-15T18:33:58;100786.56;;;9.81;100.00
58973;BME280;44750;52.040;7.472;2023-02-15T18:39:00;100799.53;;;9.77;100.00
58973;BME280;44750;52.040;7.472;2023-02-15T18:44:01;100832.69;;;9.89;100.00
58973;BME280;44750;52.040;7.472;2023-02-15T18:49:01;100821.59;;;9.82;100.00
58973;BME280;44750;52.040;7.472;2023-02-15T18:54:01;100755.34;;;9.49;100.00
58973;BME280;44750;52.040;7.472;2023-02-15T18:59:01;100806.09;;;9.65;100.00
58973;BME280;44750;52.040;7.472;2023-02-15T19:04:01;100803.00;;;9.60;100.00
58973;BME280;44750;52.040;7.472;2023-02-15T19:09:02;100784.81;;;9.52;100.00
58973;BME280;44750;52.040;7.472;2023-02-15T19:14:02;100757.06;;;9.50;100.00
58973;BME280;44750;52.040;7.472;2023-02-15T19:19:02;100771.16;;;9.44;100.00
58973;BME280;44750;52.040;7.472;2023-02-15T19:24:13;100747.41;;;9.18;100.00
58973;BME280;44750;52.040;7.472;2023-02-15T19:29:20;100748.56;;;9.15;100.00
58973;BME280;44750;52.040;7.472;2023-02-15T19:34:24;100731.38;;;8.97;100.00
58973;BME280;44750;52.040;7.472;2023-02-15T19:39:36;100737.06;;;8.94;100.00
58973;BME280;44750;52.040;7.472;2023-02-15T19:44:37;100780.41;;;9.02;100.00
58973;BME280;44750;52.040;7.472;2023-02-15T19:49:38;100822.91;;;9.10;100.00
58973;BME280;44750;52.040;7.472;2023-02-15T19:54:38;100841.13;;;9.08;100.00
58973;BME280;44750;52.040;7.472;2023-02-15T19:59:39;100864.97;;;9.02;100.00
58973;BME280;44750;52.040;7.472;2023-02-15T20:04:39;100835.91;;;8.75;100.00
58973;BME280;44750;52.040;7.472;2023-02-15T20:09:42;100844.59;;;8.69;100.00
58973;BME280;44750;52.040;7.472;2023-02-15T20:14:46;100865.28;;;8.59;100.00
58973;BME280;44750;52.040;7.472;2023-02-15T20:20:08;100868.44;;;8.43;100.00
58973;BME280;44750;52.040;7.472;2023-02-15T20:25:28;100851.25;;;8.13;100.00
58973;BME280;44750;52.040;7.472;2023-02-15T20:30:30;100866.88;;;8.09;100.00
58973;BME280;44750;52.040;7.472;2023-02-15T20:35:31;100906.25;;;8.22;100.00
58973;BME280;44750;52.040;7.472;2023-02-15T20:40:33;100953.19;;;8.40;100.00
58973;BME280;44750;52.040;7.472;2023-02-15T20:45:33;100967.19;;;8.34;100.00
58973;BME280;44750;52.040;7.472;2023-02-15T20:50:36;100979.91;;;8.22;100.00
58973;BME280;44750;52.040;7.472;2023-02-15T20:55:37;100963.25;;;7.96;100.00
58973;BME280;44750;52.040;7.472;2023-02-15T21:00:37;100987.97;;;8.01;100.00
58973;BME280;44750;52.040;7.472;2023-02-15T21:05:37;100997.56;;;7.94;100.00
58973;BME280;44750;52.040;7.472;2023-02-15T21:10:45;100979.25;;;7.76;100.00
58973;BME280;44750;52.040;7.472;2023-02-15T21:15:50;100960.34;;;7.55;100.00
58973;BME280;44750;52.040;7.472;2023-02-15T21:21:04;100998.41;;;7.62;100.00
58973;BME280;44750;52.040;7.472;2023-02-15T21:26:05;101010.16;;;7.72;100.00
58973;BME280;44750;52.040;7.472;2023-02-15T21:31:14;101056.53;;;7.87;100.00
58973;BME280;44750;52.040;7.472;2023-02-15T21:36:22;101048.22;;;7.79;100.00
58973;BME280;44750;52.040;7.472;2023-02-15T21:41:23;101028.94;;;7.51;100.00
58973;BME280;44750;52.040;7.472;2023-02-15T21:46:25;101010.97;;;7.40;100.00
58973;BME280;44750;52.040;7.472;2023-02-15T21:51:25;101036.16;;;7.50;100.00
58973;BME280;44750;52.040;7.472;2023-02-15T21:56:25;101003.97;;;7.26;100.00
58973;BME280;44750;52.040;7.472;2023-02-15T22:01:27;101054.28;;;7.60;100.00
58973;BME280;44750;52.040;7.472;2023-02-15T22:06:27;101034.81;;;7.45;100.00
58973;BME280;44750;52.040;7.472;2023-02-15T22:11:28;101048.41;;;7.43;100.00
58973;BME280;44750;52.040;7.472;2023-02-15T22:16:29;101027.38;;;7.26;100.00
58973;BME280;44750;52.040;7.472;2023-02-15T22:21:29;101033.50;;;7.16;100.00
58973;BME280;44750;52.040;7.472;2023-02-15T22:26:29;101047.72;;;7.18;100.00
58973;BME280;44750;52.040;7.472;2023-02-15T22:31:30;101046.97;;;7.05;100.00
58973;BME280;44750;52.040;7.472;2023-02-15T22:36:30;101037.03;;;6.94;100.00
58973;BME280;44750;52.040;7.472;2023-02-15T22:41:31;101070.69;;;7.11;100.00
58973;BME280;44750;52.040;7.472;2023-02-15T22:46:34;101058.72;;;7.04;100.00
58973;BME280;44750;52.040;7.472;2023-02-15T22:51:34;101059.44;;;6.95;100.00
58973;BME280;44750;52.040;7.472;2023-02-15T22:56:40;101066.03;;;6.91;100.00
58973;BME280;44750;52.040;7.472;2023-02-15T23:01:41;101062.25;;;6.93;100.00
58973;BME280;44750;52.040;7.472;2023-02-15T23:06:41;101063.56;;;6.88;100.00
58973;BME280;44750;52.040;7.472;2023-02-15T23:11:42;101051.59;;;6.80;100.00
58973;BME280;44750;52.040;7.472;2023-02-15T23:16:42;101045.22;;;6.70;100.00
58973;BME280;44750;52.040;7.472;2023-02-15T23:21:42;101050.84;;;6.67;100.00
58973;BME280;44750;52.040;7.472;2023-02-15T23:26:43;101048.59;;;6.61;100.00
58973;BME280;44750;52.040;7.472;2023-02-15T23:31:46;101052.63;;;6.55;100.00
58973;BME280;44750;52.040;7.472;2023-02-15T23:36:47;101039.28;;;6.42;100.00
58973;BME280;44750;52.040;7.472;2023-02-15T23:41:47;101033.38;;;6.37;100.00
58973;BME280;44750;52.040;7.472;2023-02-15T23:46:48;101001.66;;;6.07;100.00
58973;BME280;44750;52.040;7.472;2023-02-15T23:51:53;101027.16;;;6.25;100.00
58973;BME280;44750;52.040;7.472;2023-02-15T23:56:58;101021.84;;;6.24;100.00
